Terminal Aerodrome Forecast
Issued by NWS

Home | Current Version | Previous Version | Text Only | Print | Product List | Glossary Off
Versions: 1 2 3 4 5 6 7 8 9 10 11 12 13 14 15 16

071
FTUS43 KBIS 202322
TAFDIK
TAF
KDIK 202322Z 2100/2124 15010KT P6SM FEW110
     FM211100 21009KT P6SM FEW200
     FM211300 24011KT P6SM FEW250
     FM211600 30021G30KT P6SM SKC=

USA.gov is the U.S. government's official web portal to all federal, state and local government web resources and services.